Time;durP1;ratioP1;P1;durP2;ratioP2;P2;SDS_P1;SDS_P2;PMS_P1;PMS_P2;Temp;Humidity;BMP_temperature;BMP_pressure;BME280_temperature;BME280_humidity;BME280_pressure;Samples;Min_cycle;Max_cycle;Signal;HPM_P1;HPM_P2
2023/12/09 00:04:53;;;;;;;36.80;18.38;;;;;;;;;;10465326;28;20326;-86
2023/12/09 00:09:53;;;;;;;35.75;17.15;;;;;;;;;;10445181;28;20053;-86
2023/12/09 00:14:53;;;;;;;35.40;17.90;;;;;;;;;;10456888;28;20112;-85
2023/12/09 00:19:53;;;;;;;35.13;16.73;;;;;;;;;;10471638;28;20307;-85
2023/12/09 00:24:54;;;;;;;37.88;17.10;;;;;;;;;;10474651;28;20376;-87
2023/12/09 00:29:54;;;;;;;43.30;19.60;;;;;;;;;;10474550;28;20043;-86
2023/12/09 00:34:54;;;;;;;37.55;16.02;;;;;;;;;;10473653;28;20259;-87
2023/12/09 00:39:54;;;;;;;40.47;17.85;;;;;;;;;;10489800;28;20315;-88
2023/12/09 00:44:55;;;;;;;43.75;19.52;;;;;;;;;;10474957;28;20021;-87
2023/12/09 00:49:55;;;;;;;36.15;19.17;;;;;;;;;;10470949;28;20099;-88
2023/12/09 00:54:55;;;;;;;43.22;19.27;;;;;;;;;;10489781;28;20084;-86
2023/12/09 00:59:55;;;;;;;42.17;19.75;;;;;;;;;;10470559;28;20341;-86
2023/12/09 01:04:57;;;;;;;47.78;20.55;;;;;;;;;;10471036;28;20264;-84
2023/12/09 01:09:57;;;;;;;41.78;18.65;;;;;;;;;;10470595;28;20025;-83
2023/12/09 01:14:57;;;;;;;42.65;19.52;;;;;;;;;;10446362;28;20042;-86
2023/12/09 01:19:57;;;;;;;40.95;19.98;;;;;;;;;;10446186;28;20028;-86
2023/12/09 01:24:58;;;;;;;47.30;20.23;;;;;;;;;;10464221;28;20023;-86
2023/12/09 01:29:58;;;;;;;39.20;18.38;;;;;;;;;;10473006;28;20561;-86
2023/12/09 01:34:58;;;;;;;43.58;20.77;;;;;;;;;;10466924;28;20023;-83
2023/12/09 01:39:59;;;;;;;44.88;19.55;;;;;;;;;;10447931;28;20048;-82
2023/12/09 01:44:59;;;;;;;46.75;20.33;;;;;;;;;;10485786;28;20402;-84
2023/12/09 01:49:59;;;;;;;44.42;20.65;;;;;;;;;;10470570;28;20087;-83
2023/12/09 01:55:00;;;;;;;43.28;21.15;;;;;;;;;;10444417;28;20017;-85
2023/12/09 02:00:03;;;;;;;43.35;20.67;;;;;;;;;;10448682;28;20196;-85
2023/12/09 02:05:03;;;;;;;39.95;18.75;;;;;;;;;;10446866;28;20028;-87
2023/12/09 02:10:04;;;;;;;35.72;17.83;;;;;;;;;;10444405;28;20026;-84
2023/12/09 02:15:06;;;;;;;42.40;18.38;;;;;;;;;;10462812;28;20040;-87
2023/12/09 02:20:08;;;;;;;38.78;18.15;;;;;;;;;;10436257;28;20049;-83
2023/12/09 02:25:10;;;;;;;39.13;17.80;;;;;;;;;;10475022;28;20357;-84
2023/12/09 02:30:20;;;;;;;36.33;17.10;;;;;;;;;;10469712;28;20219;-85
2023/12/09 02:35:22;;;;;;;39.42;18.80;;;;;;;;;;10469359;28;20021;-84
2023/12/09 02:40:24;;;;;;;35.05;16.17;;;;;;;;;;10469477;28;20020;-83
2023/12/09 02:45:25;;;;;;;38.70;19.02;;;;;;;;;;10467323;28;20311;-84
2023/12/09 02:50:30;;;;;;;42.77;20.27;;;;;;;;;;10458807;28;20076;-83
2023/12/09 02:55:30;;;;;;;40.05;19.63;;;;;;;;;;10434826;28;20021;-84
2023/12/09 03:00:30;;;;;;;40.65;19.25;;;;;;;;;;10482422;28;20071;-84
2023/12/09 03:05:31;;;;;;;37.85;17.95;;;;;;;;;;10485434;28;20020;-84
2023/12/09 03:10:31;;;;;;;40.42;18.33;;;;;;;;;;10485559;28;20044;-83
2023/12/09 03:15:32;;;;;;;37.30;17.48;;;;;;;;;;10464763;28;20327;-83
2023/12/09 03:20:32;;;;;;;41.83;18.73;;;;;;;;;;10468612;28;20048;-85
2023/12/09 03:25:33;;;;;;;42.13;17.40;;;;;;;;;;10448398;28;20319;-84
2023/12/09 03:30:57;;;;;;;38.03;15.93;;;;;;;;;;10450342;28;20207;-88
2023/12/09 03:35:57;;;;;;;33.42;16.75;;;;;;;;;;10449720;28;20321;-81
2023/12/09 03:40:57;;;;;;;35.92;17.15;;;;;;;;;;10457029;28;20268;-81
2023/12/09 03:45:58;;;;;;;31.95;15.70;;;;;;;;;;10454130;28;20027;-82
2023/12/09 03:50:58;;;;;;;30.33;14.60;;;;;;;;;;10480043;28;20023;-81
2023/12/09 03:55:58;;;;;;;29.77;15.63;;;;;;;;;;10443753;28;20345;-79
2023/12/09 04:00:59;;;;;;;25.53;14.33;;;;;;;;;;10439016;28;20227;-82
2023/12/09 04:05:59;;;;;;;25.95;14.20;;;;;;;;;;10431426;28;20223;-82
2023/12/09 04:11:00;;;;;;;25.38;13.88;;;;;;;;;;10458237;28;20013;-82
2023/12/09 04:16:00;;;;;;;27.50;14.63;;;;;;;;;;10438956;28;20243;-80
2023/12/09 04:21:00;;;;;;;29.90;14.77;;;;;;;;;;10464167;28;20020;-81
2023/12/09 04:26:01;;;;;;;30.90;15.02;;;;;;;;;;10472070;28;20036;-82
2023/12/09 04:31:01;;;;;;;30.25;14.65;;;;;;;;;;10429156;28;20021;-81
2023/12/09 04:36:02;;;;;;;26.93;14.40;;;;;;;;;;10430353;28;20545;-82
2023/12/09 04:41:04;;;;;;;29.77;15.45;;;;;;;;;;10459599;28;20028;-83
2023/12/09 04:46:04;;;;;;;33.45;13.95;;;;;;;;;;10468290;28;20136;-81
2023/12/09 04:51:04;;;;;;;24.90;14.88;;;;;;;;;;10466435;28;20214;-80
2023/12/09 04:56:05;;;;;;;32.60;16.57;;;;;;;;;;10468855;28;20071;-81
2023/12/09 05:01:05;;;;;;;26.30;14.30;;;;;;;;;;10450279;28;20301;-81
2023/12/09 05:06:07;;;;;;;30.55;14.48;;;;;;;;;;10467105;28;20080;-79
2023/12/09 05:11:07;;;;;;;28.95;14.40;;;;;;;;;;10466538;28;20192;-78
2023/12/09 05:16:08;;;;;;;27.20;14.25;;;;;;;;;;10466423;28;20037;-79
2023/12/09 05:21:08;;;;;;;29.65;13.35;;;;;;;;;;10457250;28;20029;-79
2023/12/09 05:26:09;;;;;;;31.13;14.45;;;;;;;;;;10433468;28;20021;-78
2023/12/09 05:31:09;;;;;;;28.33;14.20;;;;;;;;;;10464904;28;20088;-79
2023/12/09 05:36:09;;;;;;;35.08;15.40;;;;;;;;;;10464278;28;20082;-78
2023/12/09 05:41:09;;;;;;;31.33;16.00;;;;;;;;;;10470455;28;20044;-79
2023/12/09 05:46:17;;;;;;;28.27;14.27;;;;;;;;;;10461614;28;20619;-78
2023/12/09 05:51:17;;;;;;;33.90;15.97;;;;;;;;;;10450536;28;20021;-86
2023/12/09 05:56:17;;;;;;;24.23;14.07;;;;;;;;;;10448592;28;20302;-87
2023/12/09 06:01:18;;;;;;;29.45;13.95;;;;;;;;;;10468389;28;20017;-86
2023/12/09 06:06:18;;;;;;;34.67;15.45;;;;;;;;;;10486134;28;20027;-87
2023/12/09 06:11:18;;;;;;;32.45;14.48;;;;;;;;;;10464950;28;20029;-89
2023/12/09 06:16:18;;;;;;;30.65;13.52;;;;;;;;;;10481645;28;20040;-81
2023/12/09 06:21:22;;;;;;;27.25;13.60;;;;;;;;;;10474211;28;20024;-78
2023/12/09 06:26:22;;;;;;;26.52;12.73;;;;;;;;;;10422286;28;20323;-76
2023/12/09 06:31:23;;;;;;;28.10;13.40;;;;;;;;;;10475871;28;20040;-77
2023/12/09 06:36:23;;;;;;;25.48;11.85;;;;;;;;;;10460722;28;20013;-77
2023/12/09 06:41:23;;;;;;;27.88;12.60;;;;;;;;;;10460127;28;20055;-74
2023/12/09 06:46:23;;;;;;;24.20;14.55;;;;;;;;;;10462488;28;20865;-75
2023/12/09 06:51:24;;;;;;;21.67;11.48;;;;;;;;;;10436622;28;20192;-77
2023/12/09 06:56:24;;;;;;;18.90;10.93;;;;;;;;;;10449683;28;20429;-75
2023/12/09 07:01:25;;;;;;;22.80;11.18;;;;;;;;;;10435751;28;20009;-74
2023/12/09 07:06:26;;;;;;;22.05;11.10;;;;;;;;;;10435464;28;20196;-78
2023/12/09 07:11:26;;;;;;;23.73;11.45;;;;;;;;;;10433066;28;20029;-74
2023/12/09 07:16:26;;;;;;;19.75;11.23;;;;;;;;;;10434084;28;20327;-73
2023/12/09 07:21:27;;;;;;;22.30;11.10;;;;;;;;;;10432243;28;20027;-76
2023/12/09 07:26:28;;;;;;;17.25;10.05;;;;;;;;;;10455040;28;20120;-74
2023/12/09 07:31:28;;;;;;;23.33;11.88;;;;;;;;;;10428167;28;20185;-77
2023/12/09 07:36:28;;;;;;;20.23;9.93;;;;;;;;;;10427947;28;20024;-74
2023/12/09 07:41:29;;;;;;;15.70;8.80;;;;;;;;;;10440261;28;20025;-76
2023/12/09 07:46:29;;;;;;;18.55;8.93;;;;;;;;;;10430789;28;20023;-76
2023/12/09 07:51:29;;;;;;;21.83;10.32;;;;;;;;;;10434461;28;20025;-74
2023/12/09 07:56:30;;;;;;;102.03;52.40;;;;;;;;;;10428334;28;20017;-75
2023/12/09 08:01:31;;;;;;;17.27;9.02;;;;;;;;;;10430225;28;20472;-77
2023/12/09 08:06:32;;;;;;;22.55;10.23;;;;;;;;;;10441415;28;20068;-76
2023/12/09 08:11:32;;;;;;;22.90;9.40;;;;;;;;;;10442892;28;20013;-75
2023/12/09 08:16:32;;;;;;;20.13;9.70;;;;;;;;;;10437251;28;20041;-76
2023/12/09 08:21:36;;;;;;;22.63;10.35;;;;;;;;;;10442499;28;20020;-75
2023/12/09 08:26:37;;;;;;;21.63;11.38;;;;;;;;;;10441258;28;20029;-76
2023/12/09 08:31:37;;;;;;;25.05;10.55;;;;;;;;;;10442477;28;20021;-76
2023/12/09 08:36:38;;;;;;;23.40;9.85;;;;;;;;;;10439703;28;20024;-75
2023/12/09 08:41:38;;;;;;;26.47;11.13;;;;;;;;;;10437209;28;20092;-75
2023/12/09 08:46:38;;;;;;;18.77;9.23;;;;;;;;;;10457350;28;20025;-76
2023/12/09 08:51:45;;;;;;;22.10;10.48;;;;;;;;;;10435489;28;20021;-75
2023/12/09 08:56:45;;;;;;;18.10;9.10;;;;;;;;;;10434765;28;20025;-76
2023/12/09 09:01:45;;;;;;;18.05;8.88;;;;;;;;;;10442321;28;20084;-76
2023/12/09 09:06:45;;;;;;;17.90;9.40;;;;;;;;;;10433733;28;20021;-77
2023/12/09 09:11:46;;;;;;;15.73;9.43;;;;;;;;;;10443727;28;20357;-76
2023/12/09 09:16:46;;;;;;;27.00;10.67;;;;;;;;;;10460090;28;20334;-76
2023/12/09 09:21:46;;;;;;;21.98;10.50;;;;;;;;;;10434127;28;20334;-75
2023/12/09 09:26:47;;;;;;;17.50;8.90;;;;;;;;;;10444883;28;20039;-76
2023/12/09 09:31:47;;;;;;;14.15;7.78;;;;;;;;;;10443477;28;20013;-76
2023/12/09 09:36:47;;;;;;;17.20;8.65;;;;;;;;;;10457166;28;20084;-76
2023/12/09 09:41:47;;;;;;;19.13;9.18;;;;;;;;;;10432115;28;20068;-76
2023/12/09 09:46:49;;;;;;;15.95;8.38;;;;;;;;;;10454136;28;20184;-76
2023/12/09 09:51:51;;;;;;;14.57;7.97;;;;;;;;;;10445655;28;20071;-74
2023/12/09 09:56:53;;;;;;;12.18;6.38;;;;;;;;;;10435465;28;20191;-75
2023/12/09 10:01:53;;;;;;;19.25;7.95;;;;;;;;;;10444730;28;20019;-75
2023/12/09 10:06:54;;;;;;;15.75;7.45;;;;;;;;;;10430919;28;20017;-76
2023/12/09 10:11:54;;;;;;;13.65;8.43;;;;;;;;;;10443582;28;20012;-77
2023/12/09 10:16:56;;;;;;;15.45;8.48;;;;;;;;;;10443429;28;20050;-75
2023/12/09 10:21:56;;;;;;;11.57;6.55;;;;;;;;;;10434400;28;20338;-75
2023/12/09 10:26:56;;;;;;;11.93;7.32;;;;;;;;;;10441792;28;21116;-75
2023/12/09 10:31:59;;;;;;;12.83;6.57;;;;;;;;;;10454926;28;20369;-75
2023/12/09 10:36:59;;;;;;;10.10;5.25;;;;;;;;;;10435742;28;20345;-75
2023/12/09 10:41:59;;;;;;;8.45;4.75;;;;;;;;;;10440149;28;20192;-75
2023/12/09 10:46:59;;;;;;;10.85;6.28;;;;;;;;;;10432341;28;20369;-75
2023/12/09 10:52:00;;;;;;;12.63;5.60;;;;;;;;;;10434977;28;20013;-74
2023/12/09 10:57:01;;;;;;;7.43;4.95;;;;;;;;;;10441699;28;20025;-76
2023/12/09 11:02:01;;;;;;;9.35;5.82;;;;;;;;;;10445267;28;20211;-75
2023/12/09 11:07:05;;;;;;;11.87;6.73;;;;;;;;;;10437882;28;20322;-75
2023/12/09 11:12:06;;;;;;;8.75;5.25;;;;;;;;;;10432950;28;20009;-75
2023/12/09 11:17:26;;;;;;;11.70;6.35;;;;;;;;;;10438623;28;20334;-75
2023/12/09 11:22:28;;;;;;;10.65;6.38;;;;;;;;;;10436912;28;20320;-76
2023/12/09 11:27:28;;;;;;;9.63;5.65;;;;;;;;;;10433451;28;20370;-76
2023/12/09 11:32:29;;;;;;;11.60;6.38;;;;;;;;;;10435221;28;20013;-75
2023/12/09 11:37:30;;;;;;;14.75;6.78;;;;;;;;;;10432289;28;20087;-76
2023/12/09 11:42:31;;;;;;;9.13;6.35;;;;;;;;;;10432775;28;20051;-75
2023/12/09 11:47:31;;;;;;;19.70;5.75;;;;;;;;;;10430462;28;20040;-76
2023/12/09 11:52:31;;;;;;;10.57;5.18;;;;;;;;;;10432857;28;20084;-74
2023/12/09 11:57:32;;;;;;;15.90;5.72;;;;;;;;;;10428533;28;20098;-75
2023/12/09 12:02:35;;;;;;;8.35;5.38;;;;;;;;;;10434697;28;20013;-76
2023/12/09 12:07:36;;;;;;;10.40;5.40;;;;;;;;;;10431244;28;20029;-76
2023/12/09 12:12:36;;;;;;;9.32;6.13;;;;;;;;;;10429047;28;20025;-74
2023/12/09 12:17:40;;;;;;;9.60;5.80;;;;;;;;;;10428425;28;20330;-76
2023/12/09 12:22:40;;;;;;;11.55;6.60;;;;;;;;;;10425110;28;20022;-75
2023/12/09 12:27:47;;;;;;;11.35;6.85;;;;;;;;;;10431966;28;20014;-76
2023/12/09 12:32:54;;;;;;;17.73;7.95;;;;;;;;;;10430055;28;20295;-76
2023/12/09 12:37:57;;;;;;;19.00;8.77;;;;;;;;;;10426162;28;20025;-79
2023/12/09 12:43:01;;;;;;;19.73;8.35;;;;;;;;;;10430039;28;20436;-78
2023/12/09 12:48:01;;;;;;;15.23;7.43;;;;;;;;;;10444546;28;20661;-76
2023/12/09 12:53:02;;;;;;;20.67;8.00;;;;;;;;;;10463098;28;20066;-77
2023/12/09 12:58:03;;;;;;;25.52;7.97;;;;;;;;;;10437114;28;20022;-80
2023/12/09 13:03:05;;;;;;;12.20;7.53;;;;;;;;;;10443149;28;20033;-74
2023/12/09 13:08:05;;;;;;;15.55;8.07;;;;;;;;;;10438001;28;20013;-74
2023/12/09 13:13:05;;;;;;;17.00;8.13;;;;;;;;;;10433010;28;20478;-75
2023/12/09 13:18:06;;;;;;;20.73;7.93;;;;;;;;;;10436571;28;20010;-76
2023/12/09 13:23:06;;;;;;;13.93;7.90;;;;;;;;;;10440971;28;20362;-75
2023/12/09 13:28:06;;;;;;;15.05;6.95;;;;;;;;;;10442466;28;20257;-75
2023/12/09 13:33:06;;;;;;;14.30;8.30;;;;;;;;;;10441346;28;20227;-75
2023/12/09 13:38:07;;;;;;;14.23;8.32;;;;;;;;;;10438036;28;20080;-74
2023/12/09 13:43:07;;;;;;;15.70;9.00;;;;;;;;;;10447446;28;20040;-75
2023/12/09 13:48:09;;;;;;;19.73;7.95;;;;;;;;;;10431441;28;20040;-75
2023/12/09 13:53:09;;;;;;;18.48;8.82;;;;;;;;;;10442196;28;20211;-75
2023/12/09 13:58:09;;;;;;;17.33;9.18;;;;;;;;;;10450614;28;20116;-75
2023/12/09 14:03:10;;;;;;;18.25;9.15;;;;;;;;;;10451692;28;20266;-75
2023/12/09 14:08:10;;;;;;;21.58;11.77;;;;;;;;;;10432579;28;20040;-75
2023/12/09 14:13:10;;;;;;;21.05;11.02;;;;;;;;;;10437881;28;20021;-75
2023/12/09 14:18:11;;;;;;;17.70;10.40;;;;;;;;;;10434543;28;20013;-75
2023/12/09 14:23:11;;;;;;;22.52;10.13;;;;;;;;;;10449423;28;20017;-75
2023/12/09 14:28:13;;;;;;;19.45;10.68;;;;;;;;;;10434039;28;20080;-75
2023/12/09 14:33:14;;;;;;;20.80;10.48;;;;;;;;;;10446589;28;20319;-75
2023/12/09 14:38:15;;;;;;;21.52;10.18;;;;;;;;;;10431889;28;20060;-75
2023/12/09 14:43:15;;;;;;;21.55;11.38;;;;;;;;;;10433815;28;20342;-75
2023/12/09 14:48:18;;;;;;;204.40;123.57;;;;;;;;;;10443880;28;20203;-76
2023/12/09 14:53:19;;;;;;;23.08;13.05;;;;;;;;;;10436541;28;20071;-75
2023/12/09 14:58:19;;;;;;;24.63;12.18;;;;;;;;;;10433921;28;20013;-75
2023/12/09 15:03:20;;;;;;;25.88;12.38;;;;;;;;;;10433516;28;20026;-76
2023/12/09 15:08:20;;;;;;;23.20;12.30;;;;;;;;;;10448492;28;20013;-75
2023/12/09 15:13:21;;;;;;;25.48;11.57;;;;;;;;;;10427272;28;20238;-74
2023/12/09 15:18:21;;;;;;;29.77;11.68;;;;;;;;;;10422286;28;20089;-74
2023/12/09 15:23:22;;;;;;;27.95;13.50;;;;;;;;;;10432124;28;20017;-73
2023/12/09 15:28:26;;;;;;;33.92;15.48;;;;;;;;;;10438327;28;20024;-78
2023/12/09 15:33:27;;;;;;;27.05;14.40;;;;;;;;;;10432825;28;20013;-78
2023/12/09 15:38:27;;;;;;;27.48;14.80;;;;;;;;;;10429722;28;20357;-77
2023/12/09 15:43:27;;;;;;;30.00;16.08;;;;;;;;;;10449524;28;20033;-77
2023/12/09 15:48:28;;;;;;;30.33;13.90;;;;;;;;;;10424876;28;20092;-76
2023/12/09 15:53:28;;;;;;;33.42;16.45;;;;;;;;;;10433259;28;20009;-74
2023/12/09 15:58:28;;;;;;;32.22;17.88;;;;;;;;;;10435033;28;20010;-76
2023/12/09 16:03:28;;;;;;;31.07;17.77;;;;;;;;;;10435503;28;20021;-75
2023/12/09 16:08:29;;;;;;;29.88;17.05;;;;;;;;;;10431318;28;20033;-75
2023/12/09 16:13:29;;;;;;;33.85;14.43;;;;;;;;;;10430692;28;20211;-79
2023/12/09 16:18:29;;;;;;;34.70;16.17;;;;;;;;;;10436632;28;20079;-80
2023/12/09 16:23:30;;;;;;;37.05;17.00;;;;;;;;;;10457014;28;20020;-78
2023/12/09 16:28:30;;;;;;;39.47;17.47;;;;;;;;;;10436470;28;20021;-77
2023/12/09 16:33:30;;;;;;;35.70;16.42;;;;;;;;;;10445155;28;20051;-77
2023/12/09 16:38:33;;;;;;;32.90;16.77;;;;;;;;;;10443404;28;20207;-80
2023/12/09 16:43:34;;;;;;;32.35;15.63;;;;;;;;;;10452238;28;20029;-80
2023/12/09 16:48:34;;;;;;;33.90;16.80;;;;;;;;;;10439275;28;20306;-79
2023/12/09 16:53:34;;;;;;;29.65;16.60;;;;;;;;;;10451270;28;20311;-77
2023/12/09 16:58:35;;;;;;;36.45;17.02;;;;;;;;;;10455110;28;20017;-80
2023/12/09 17:03:35;;;;;;;37.83;20.33;;;;;;;;;;10439254;28;20033;-80
2023/12/09 17:08:35;;;;;;;43.45;17.88;;;;;;;;;;10459650;28;20025;-82
2023/12/09 17:13:35;;;;;;;44.72;19.27;;;;;;;;;;10450644;28;20383;-76
2023/12/09 17:18:36;;;;;;;33.38;17.63;;;;;;;;;;10427660;28;20342;-77
2023/12/09 17:23:36;;;;;;;36.88;18.65;;;;;;;;;;10439375;28;20040;-83
2023/12/09 17:28:39;;;;;;;46.75;17.30;;;;;;;;;;10445072;28;20017;-84
2023/12/09 17:33:40;;;;;;;48.10;21.17;;;;;;;;;;10461952;28;20056;-82
2023/12/09 17:38:40;;;;;;;45.22;21.30;;;;;;;;;;10439907;28;20155;-78
2023/12/09 17:43:41;;;;;;;33.67;17.88;;;;;;;;;;10455613;28;20037;-84
2023/12/09 17:48:41;;;;;;;36.63;18.25;;;;;;;;;;10441047;28;20013;-84
2023/12/09 17:53:41;;;;;;;38.72;18.23;;;;;;;;;;10445249;28;20012;-84
2023/12/09 17:58:41;;;;;;;35.13;17.83;;;;;;;;;;10442652;28;20165;-85
2023/12/09 18:03:42;;;;;;;38.28;17.50;;;;;;;;;;10460199;28;20009;-84
2023/12/09 18:08:42;;;;;;;32.22;17.15;;;;;;;;;;10439747;28;20086;-84
2023/12/09 18:13:42;;;;;;;35.63;18.65;;;;;;;;;;10444915;28;20024;-86
2023/12/09 18:18:43;;;;;;;38.30;19.10;;;;;;;;;;10458960;28;20022;-84
2023/12/09 18:23:44;;;;;;;40.33;19.52;;;;;;;;;;10451567;28;20013;-85
2023/12/09 18:28:44;;;;;;;40.83;19.92;;;;;;;;;;10449183;28;20013;-81
2023/12/09 18:33:47;;;;;;;33.67;15.38;;;;;;;;;;10463518;28;20025;-88
2023/12/09 18:38:48;;;;;;;37.78;18.27;;;;;;;;;;10473631;28;20024;-89
2023/12/09 18:43:54;;;;;;;50.92;21.10;;;;;;;;;;10472700;28;20032;-88
2023/12/09 18:48:59;;;;;;;47.58;21.70;;;;;;;;;;10471583;28;20051;-91
2023/12/09 18:54:10;;;;;;;43.70;20.77;;;;;;;;;;10469113;28;20112;-89
2023/12/09 18:59:10;;;;;;;43.38;21.48;;;;;;;;;;10456739;28;20033;-91
2023/12/09 19:04:13;;;;;;;45.13;21.52;;;;;;;;;;10481873;28;20056;-89
2023/12/09 19:09:16;;;;;;;49.00;21.33;;;;;;;;;;10477506;28;20059;-90
2023/12/09 19:14:19;;;;;;;47.65;21.05;;;;;;;;;;10476115;28;20051;-89
2023/12/09 19:19:23;;;;;;;50.90;23.27;;;;;;;;;;10476895;28;20129;-87
2023/12/09 19:24:34;;;;;;;53.10;22.93;;;;;;;;;;10484827;28;20019;-88
2023/12/09 19:29:35;;;;;;;53.90;23.35;;;;;;;;;;10484241;28;20309;-85
2023/12/09 19:34:39;;;;;;;43.88;20.58;;;;;;;;;;10436634;28;20017;-87
2023/12/09 19:39:40;;;;;;;43.05;19.83;;;;;;;;;;10449333;28;20037;-74
2023/12/09 19:44:40;;;;;;;46.80;21.50;;;;;;;;;;10440273;28;20589;-76
2023/12/09 19:49:42;;;;;;;45.77;21.43;;;;;;;;;;10446047;28;20033;-77
2023/12/09 19:54:42;;;;;;;54.25;26.88;;;;;;;;;;10430318;28;20028;-77
2023/12/09 19:59:42;;;;;;;41.97;20.35;;;;;;;;;;10435003;28;20096;-79
2023/12/09 20:04:43;;;;;;;47.13;24.23;;;;;;;;;;10439271;28;20025;-81
2023/12/09 20:09:43;;;;;;;46.20;20.30;;;;;;;;;;10453183;28;20158;-82
2023/12/09 20:14:43;;;;;;;45.72;21.80;;;;;;;;;;10457277;28;20168;-76
2023/12/09 20:19:44;;;;;;;44.00;20.40;;;;;;;;;;10428694;28;20040;-76
2023/12/09 20:24:44;;;;;;;40.13;20.17;;;;;;;;;;10448069;28;20089;-75
2023/12/09 20:29:44;;;;;;;40.28;20.80;;;;;;;;;;10436456;28;20072;-82
2023/12/09 20:34:45;;;;;;;38.00;18.27;;;;;;;;;;10449530;28;20020;-81
2023/12/09 20:39:45;;;;;;;39.97;18.53;;;;;;;;;;10466407;28;20055;-83
2023/12/09 20:44:46;;;;;;;40.72;19.98;;;;;;;;;;10444801;28;20063;-80
2023/12/09 20:49:46;;;;;;;37.97;17.15;;;;;;;;;;10429302;28;20020;-82
2023/12/09 20:54:46;;;;;;;38.93;17.93;;;;;;;;;;10440017;28;20563;-80
2023/12/09 20:59:46;;;;;;;39.08;17.52;;;;;;;;;;10453111;28;20010;-79
2023/12/09 21:04:47;;;;;;;41.63;19.63;;;;;;;;;;10456873;28;20597;-78
2023/12/09 21:09:47;;;;;;;44.77;17.30;;;;;;;;;;10436072;28;20299;-75
2023/12/09 21:14:47;;;;;;;37.57;18.23;;;;;;;;;;10442519;28;20493;-79
2023/12/09 21:19:48;;;;;;;40.05;18.70;;;;;;;;;;10437009;28;20336;-80
2023/12/09 21:24:48;;;;;;;43.97;19.23;;;;;;;;;;10444773;28;20035;-82
2023/12/09 21:29:48;;;;;;;48.42;20.48;;;;;;;;;;10423507;28;20091;-80
2023/12/09 21:34:48;;;;;;;48.05;20.33;;;;;;;;;;10440583;28;20334;-77
2023/12/09 21:39:49;;;;;;;49.67;21.65;;;;;;;;;;10456607;28;20017;-78
2023/12/09 21:44:52;;;;;;;45.63;21.02;;;;;;;;;;10449875;28;20017;-80
2023/12/09 21:49:53;;;;;;;47.55;22.02;;;;;;;;;;10459035;28;20311;-88
2023/12/09 21:54:53;;;;;;;45.50;22.27;;;;;;;;;;10467164;28;20448;-89
2023/12/09 21:59:53;;;;;;;56.80;25.77;;;;;;;;;;10458814;28;20025;-78
2023/12/09 22:04:54;;;;;;;54.90;22.90;;;;;;;;;;10435246;28;20282;-78
2023/12/09 22:09:55;;;;;;;55.33;24.77;;;;;;;;;;10468530;28;20035;-84
2023/12/09 22:14:55;;;;;;;52.22;23.80;;;;;;;;;;10458297;28;20033;-80
2023/12/09 22:19:56;;;;;;;52.33;24.60;;;;;;;;;;10441564;28;20028;-85
2023/12/09 22:24:56;;;;;;;49.63;23.35;;;;;;;;;;10445236;28;20284;-85
2023/12/09 22:29:56;;;;;;;54.03;24.77;;;;;;;;;;10436053;28;20032;-78
2023/12/09 22:34:57;;;;;;;46.95;22.48;;;;;;;;;;10430661;28;20312;-82
2023/12/09 22:39:57;;;;;;;48.60;21.63;;;;;;;;;;10443041;28;20036;-80
2023/12/09 22:44:58;;;;;;;48.35;23.10;;;;;;;;;;10442977;28;20044;-85
2023/12/09 22:49:58;;;;;;;42.23;21.63;;;;;;;;;;10434822;28;20031;-79
2023/12/09 22:54:58;;;;;;;43.73;22.90;;;;;;;;;;10441025;28;20017;-81
2023/12/09 22:59:58;;;;;;;48.95;23.05;;;;;;;;;;10445956;28;20300;-78
2023/12/09 23:04:59;;;;;;;51.50;23.10;;;;;;;;;;10426825;28;20029;-78
2023/12/09 23:09:59;;;;;;;54.72;23.77;;;;;;;;;;10435268;28;20029;-77
2023/12/09 23:14:59;;;;;;;52.58;23.67;;;;;;;;;;10448204;28;20239;-77
2023/12/09 23:19:59;;;;;;;52.78;24.00;;;;;;;;;;10445308;28;20016;-78
2023/12/09 23:25:00;;;;;;;50.80;24.00;;;;;;;;;;10432361;28;20013;-90
2023/12/09 23:30:00;;;;;;;59.33;23.67;;;;;;;;;;10451510;28;20056;-84
2023/12/09 23:35:00;;;;;;;51.50;21.17;;;;;;;;;;10432245;28;20016;-82
2023/12/09 23:40:01;;;;;;;55.33;23.75;;;;;;;;;;10437294;28;20059;-78
2023/12/09 23:45:01;;;;;;;46.67;22.00;;;;;;;;;;10452091;28;20025;-77
2023/12/09 23:50:01;;;;;;;50.97;22.15;;;;;;;;;;10432540;28;20024;-76
2023/12/09 23:55:02;;;;;;;54.78;23.20;;;;;;;;;;10428353;28;20025;-77
